createdAt,value
2019-05-03T00:00:58.164Z,15.30
2019-05-03T00:05:06.805Z,15.40
2019-05-03T00:09:15.243Z,15.50
2019-05-03T00:13:21.874Z,15.50
2019-05-03T00:17:28.930Z,15.50
2019-05-03T00:21:34.628Z,15.50
2019-05-03T00:25:41.832Z,15.40
2019-05-03T00:29:47.616Z,15.40
2019-05-03T00:34:10.219Z,15.00
2019-05-03T00:38:16.892Z,15.00
2019-05-03T00:42:22.735Z,15.40
2019-05-03T00:46:28.511Z,15.20
2019-05-03T00:50:34.206Z,15.30
2019-05-03T00:54:39.891Z,15.50
2019-05-03T00:58:49.865Z,15.50
2019-05-03T01:02:55.593Z,15.60
2019-05-03T01:07:02.267Z,15.50
2019-05-03T01:11:08.375Z,15.40
2019-05-03T01:15:16.141Z,15.40
2019-05-03T01:19:22.731Z,15.60
2019-05-03T01:23:28.509Z,15.40
2019-05-03T01:27:34.322Z,15.30
2019-05-03T01:31:42.063Z,15.10
2019-05-03T01:35:47.393Z,15.00
2019-05-03T01:39:53.092Z,14.80
2019-05-03T01:43:58.869Z,14.90
2019-05-03T01:48:06.402Z,14.90
2019-05-03T01:52:28.843Z,14.70
2019-05-03T01:56:34.534Z,14.70
2019-05-03T02:00:42.296Z,14.50
2019-05-03T02:04:49.524Z,14.70
2019-05-03T02:08:55.210Z,14.80
2019-05-03T02:13:01.698Z,14.70
2019-05-03T02:17:07.461Z,14.50
2019-05-03T02:21:13.181Z,14.60
2019-05-03T02:25:18.892Z,14.40
2019-05-03T02:29:24.566Z,14.30
2019-05-03T02:33:32.717Z,14.40
2019-05-03T02:37:39.218Z,14.60
2019-05-03T02:41:47.947Z,14.90
2019-05-03T02:46:07.215Z,15.00
2019-05-03T02:50:16.674Z,14.70
2019-05-03T02:54:22.242Z,14.50
2019-05-03T02:58:27.925Z,14.30
2019-05-03T03:02:36.530Z,14.10
2019-05-03T03:06:45.733Z,14.10
2019-05-03T03:10:55.669Z,14.30
2019-05-03T03:15:05.937Z,14.60
2019-05-03T03:19:15.879Z,14.60
2019-05-03T03:23:26.270Z,14.70
2019-05-03T03:27:36.369Z,14.70
2019-05-03T03:31:48.306Z,14.30
2019-05-03T03:36:01.090Z,14.40
2019-05-03T03:40:01.519Z,14.70
2019-05-03T03:44:07.863Z,14.70
2019-05-03T03:48:18.084Z,14.60
2019-05-03T03:52:25.571Z,14.80
2019-05-03T03:56:46.036Z,14.70
2019-05-03T04:00:46.204Z,14.80
2019-05-03T04:04:50.933Z,15.00
2019-05-03T04:08:56.851Z,15.00
2019-05-03T04:13:05.452Z,15.20
2019-05-03T04:17:15.065Z,15.40
2019-05-03T04:21:21.406Z,15.40
2019-05-03T04:25:28.316Z,15.20
2019-05-03T04:29:36.309Z,15.20
2019-05-03T04:33:42.106Z,15.30
2019-05-03T04:37:55.885Z,15.30
2019-05-03T04:42:01.861Z,15.10
2019-05-03T04:46:13.071Z,15.10
2019-05-03T04:50:18.787Z,15.30
2019-05-03T04:54:29.190Z,15.30
2019-05-03T04:58:36.400Z,15.10
2019-05-03T05:02:42.404Z,15.00
2019-05-03T05:06:48.109Z,15.20
2019-05-03T05:10:55.948Z,15.30
2019-05-03T05:15:01.326Z,15.40
2019-05-03T05:19:11.377Z,15.30
2019-05-03T05:23:17.141Z,15.40
2019-05-03T05:27:27.403Z,15.30
2019-05-03T05:31:33.104Z,15.30
2019-05-03T05:35:38.807Z,15.30
2019-05-03T05:39:44.820Z,15.30
2019-05-03T05:43:50.556Z,15.40
2019-05-03T05:48:00.581Z,15.40
2019-05-03T05:52:06.324Z,15.30
2019-05-03T05:56:16.665Z,15.40
2019-05-03T06:00:35.975Z,15.30
2019-05-03T06:04:41.664Z,15.20
2019-05-03T06:08:55.482Z,15.00
2019-05-03T06:13:20.954Z,14.90
2019-05-03T06:17:45.064Z,14.80
2019-05-03T06:22:05.133Z,14.80
2019-05-03T06:26:28.713Z,14.80
2019-05-03T06:30:39.030Z,14.70
2019-05-03T06:34:45.513Z,14.80
2019-05-03T06:38:51.409Z,14.90
2019-05-03T06:43:08.379Z,14.90
2019-05-03T06:47:08.714Z,14.90
2019-05-03T06:51:19.253Z,14.90
2019-05-03T06:55:19.451Z,15.00
2019-05-03T06:59:32.659Z,15.00
2019-05-03T07:03:51.511Z,15.00
2019-05-03T07:07:58.838Z,15.10
2019-05-03T07:12:04.764Z,14.90
2019-05-03T07:16:10.463Z,14.90
2019-05-03T07:20:16.211Z,14.90
2019-05-03T07:24:21.971Z,14.90
2019-05-03T07:28:27.722Z,14.80
2019-05-03T07:32:34.814Z,14.80
2019-05-03T07:36:40.566Z,14.80
2019-05-03T07:40:46.319Z,14.70
2019-05-03T07:44:51.986Z,14.60
2019-05-03T07:48:57.682Z,14.60
2019-05-03T07:53:04.666Z,14.50
2019-05-03T07:57:29.862Z,14.10
2019-05-03T08:01:39.969Z,13.60
2019-05-03T08:05:45.990Z,13.70
2019-05-03T08:09:51.675Z,13.70
2019-05-03T08:13:57.371Z,13.70
2019-05-03T08:18:04.821Z,14.20
2019-05-03T08:22:10.640Z,14.60
2019-05-03T08:26:16.459Z,14.90
2019-05-03T08:30:26.849Z,15.40
2019-05-03T08:34:36.823Z,15.90
2019-05-03T08:38:42.491Z,16.50
2019-05-03T08:42:48.175Z,16.70
2019-05-03T08:46:56.278Z,17.10
2019-05-03T08:51:04.489Z,17.30
2019-05-03T08:55:11.852Z,17.80
2019-05-03T08:59:28.776Z,17.60
2019-05-03T09:03:25.077Z,17.50
2019-05-03T09:07:30.765Z,17.20
2019-05-03T09:11:36.993Z,17.50
2019-05-03T09:15:44.652Z,18.10
2019-05-03T09:19:50.357Z,17.00
2019-05-03T09:23:56.076Z,16.90
2019-05-03T09:28:01.830Z,17.10
2019-05-03T09:32:07.650Z,16.90
2019-05-03T09:36:14.722Z,16.90
2019-05-03T09:40:21.707Z,17.20
2019-05-03T09:44:27.385Z,16.90
2019-05-03T09:48:34.686Z,17.00
2019-05-03T09:52:40.532Z,18.20
2019-05-03T09:56:59.162Z,18.60
2019-05-03T10:01:08.334Z,17.90
2019-05-03T10:05:12.936Z,19.10
2019-05-03T10:09:18.861Z,20.40
2019-05-03T10:13:27.203Z,20.70
2019-05-03T10:17:35.114Z,19.80
2019-05-03T10:21:44.798Z,20.20
2019-05-03T10:25:50.235Z,19.60
2019-05-03T10:30:09.074Z,19.10
2019-05-03T10:34:05.799Z,19.40
2019-05-03T10:38:11.664Z,20.70
2019-05-03T10:42:17.356Z,20.20
2019-05-03T10:46:24.934Z,19.10
2019-05-03T10:50:31.459Z,18.50
2019-05-03T10:54:37.170Z,17.90
2019-05-03T10:58:45.270Z,17.60
2019-05-03T11:02:54.956Z,18.10
2019-05-03T11:07:00.103Z,18.40
2019-05-03T11:11:06.020Z,20.70
2019-05-03T11:15:12.381Z,23.30
2019-05-03T11:19:18.113Z,22.40
2019-05-03T11:23:25.184Z,22.00
2019-05-03T11:27:32.675Z,23.60
2019-05-03T11:31:55.862Z,26.10
2019-05-03T11:40:40.757Z,22.80
2019-05-03T11:44:46.432Z,24.30
2019-05-03T11:48:52.115Z,23.80
2019-05-03T11:52:57.796Z,22.40
2019-05-03T11:57:05.433Z,21.80
2019-05-03T12:01:18.884Z,22.70
2019-05-03T12:40:59.577Z,21.90
2019-05-03T12:45:06.786Z,25.50
2019-05-03T12:50:07.953Z,26.10
2019-05-03T12:54:15.227Z,24.60
2019-05-03T12:58:22.609Z,22.60
2019-05-03T13:02:35.346Z,21.60
2019-05-03T13:06:45.393Z,21.50
2019-05-03T13:10:51.124Z,21.30
2019-05-03T13:14:56.806Z,23.30
2019-05-03T13:19:02.497Z,25.30
2019-05-03T13:23:08.244Z,24.00
2019-05-03T13:27:14.921Z,24.60
2019-05-03T13:31:20.641Z,26.00
2019-05-03T13:35:26.330Z,24.80
2019-05-03T13:39:32.007Z,23.20
2019-05-03T13:43:37.836Z,22.70
2019-05-03T13:47:44.752Z,22.40
2019-05-03T13:51:50.494Z,23.90
2019-05-03T13:55:56.218Z,25.20
2019-05-03T14:00:02.062Z,23.50
2019-05-03T14:04:07.797Z,22.30
2019-05-03T14:08:15.624Z,21.50
2019-05-03T14:12:20.877Z,21.00
2019-05-03T14:16:26.584Z,21.50
2019-05-03T14:20:49.760Z,22.90
2019-05-03T14:24:55.426Z,23.80
2019-05-03T14:29:01.203Z,22.60
2019-05-03T14:33:06.930Z,21.80
2019-05-03T14:37:12.687Z,21.40
2019-05-03T14:41:18.438Z,21.50
2019-05-03T14:45:25.534Z,22.70
2019-05-03T14:49:31.346Z,22.40
2019-05-03T14:53:38.008Z,21.70
2019-05-03T14:57:45.337Z,21.30
2019-05-03T15:01:58.407Z,21.40
2019-05-03T15:06:05.209Z,22.00
2019-05-03T15:10:11.466Z,21.60
2019-05-03T15:14:17.237Z,21.20
2019-05-03T15:18:22.917Z,21.00
2019-05-03T15:22:28.627Z,20.70
2019-05-03T15:26:35.624Z,20.50
2019-05-03T15:30:41.504Z,20.40
2019-05-03T15:34:55.290Z,20.20
2019-05-03T15:39:00.754Z,20.00
2019-05-03T15:43:09.756Z,19.90
2019-05-03T15:47:25.387Z,19.90
2019-05-03T15:51:31.094Z,20.80
2019-05-03T15:55:36.778Z,21.10
2019-05-03T15:59:44.403Z,20.80
2019-05-03T16:03:49.817Z,20.40
2019-05-03T16:07:55.504Z,20.30
